createdAt,value
2023-05-01T00:02:07.894Z,7.10
2023-05-01T00:04:40.312Z,7.80
2023-05-01T00:07:09.981Z,5.80
2023-05-01T00:09:39.494Z,7.00
2023-05-01T00:12:08.975Z,7.10
2023-05-01T00:14:38.558Z,7.50
2023-05-01T00:17:08.239Z,5.70
2023-05-01T00:19:37.857Z,6.30
2023-05-01T00:22:07.667Z,8.30
2023-05-01T00:24:37.547Z,6.70
2023-05-01T00:27:07.025Z,6.60
2023-05-01T00:29:36.507Z,5.50
2023-05-01T00:32:06.255Z,9.40
2023-05-01T00:34:35.666Z,6.60
2023-05-01T00:37:05.264Z,5.70
2023-05-01T00:39:35.813Z,8.10
2023-05-01T00:42:06.944Z,7.20
2023-05-01T00:44:36.628Z,7.10
2023-05-01T00:47:06.713Z,7.00
2023-05-01T00:49:36.527Z,6.90
2023-05-01T00:52:06.586Z,6.30
2023-05-01T00:54:37.855Z,6.90
2023-05-01T00:57:10.046Z,6.60
2023-05-01T00:59:40.219Z,6.20
2023-05-01T01:02:09.739Z,6.50
2023-05-01T01:04:45.995Z,6.60
2023-05-01T01:08:12.214Z,7.30
2023-05-01T01:10:58.242Z,6.70
2023-05-01T01:13:39.901Z,5.70
2023-05-01T01:16:23.846Z,8.00
2023-05-01T01:19:20.942Z,8.50
2023-05-01T01:21:55.833Z,6.70
2023-05-01T01:24:51.208Z,6.10
2023-05-01T01:27:58.314Z,6.00
2023-05-01T01:30:49.832Z,7.10
2023-05-01T01:33:49.272Z,5.70
2023-05-01T01:37:08.714Z,6.90
2023-05-01T01:40:16.652Z,5.60
2023-05-01T01:42:59.139Z,5.50
2023-05-01T01:45:45.905Z,6.50
2023-05-01T01:48:24.621Z,7.40
2023-05-01T01:50:58.616Z,6.40
2023-05-01T01:53:31.942Z,6.90
2023-05-01T01:56:06.709Z,7.30
2023-05-01T01:58:40.925Z,9.00
2023-05-01T02:01:12.383Z,8.80
2023-05-01T02:03:44.390Z,6.50
2023-05-01T02:06:16.341Z,8.90
2023-05-01T02:08:49.206Z,5.70
2023-05-01T02:11:22.303Z,7.70
2023-05-01T02:13:55.138Z,6.70
2023-05-01T02:18:58.311Z,5.80
2023-05-01T02:21:31.927Z,9.70
2023-05-01T02:24:03.041Z,6.30
2023-05-01T02:26:56.099Z,7.50
2023-05-01T02:29:26.991Z,8.00
2023-05-01T02:32:08.908Z,6.60
2023-05-01T02:34:39.401Z,7.20
2023-05-01T02:37:14.123Z,7.80
2023-05-01T02:39:44.714Z,6.70
2023-05-01T02:42:19.144Z,8.30
2023-05-01T02:45:03.419Z,5.70
2023-05-01T02:47:43.596Z,8.50
2023-05-01T02:50:15.348Z,6.10
2023-05-01T02:52:51.056Z,7.90
2023-05-01T02:55:44.763Z,6.30
2023-05-01T02:58:21.465Z,7.40
2023-05-01T03:00:51.787Z,9.00
2023-05-01T03:03:22.298Z,7.30
2023-05-01T03:05:52.319Z,8.10
2023-05-01T03:08:23.371Z,6.40
2023-05-01T03:11:07.045Z,7.50
2023-05-01T03:13:36.658Z,9.30
2023-05-01T03:16:06.660Z,5.90
2023-05-01T03:18:37.015Z,8.40
2023-05-01T03:21:29.678Z,9.80
2023-05-01T03:24:01.732Z,12.80
2023-05-01T03:26:33.142Z,8.40
2023-05-01T03:29:03.461Z,8.10
2023-05-01T03:31:34.898Z,7.40
2023-05-01T03:34:04.817Z,9.00
2023-05-01T03:36:34.582Z,6.70
2023-05-01T03:39:05.093Z,10.20
2023-05-01T03:42:30.949Z,9.70
2023-05-01T03:45:04.362Z,10.90
2023-05-01T03:47:54.226Z,9.50
2023-05-01T03:50:24.250Z,7.90
2023-05-01T03:52:54.931Z,9.10
2023-05-01T03:55:25.097Z,12.20
2023-05-01T03:57:55.344Z,11.20
2023-05-01T04:00:25.465Z,8.90
2023-05-01T04:02:56.942Z,8.50
2023-05-01T04:05:26.899Z,8.00
2023-05-01T04:08:00.632Z,8.00
2023-05-01T04:10:30.162Z,7.40
2023-05-01T04:13:12.284Z,7.40
2023-05-01T04:15:46.893Z,8.10
2023-05-01T04:18:17.665Z,7.50
2023-05-01T04:20:52.764Z,8.60
2023-05-01T04:23:24.757Z,7.30
2023-05-01T04:25:55.532Z,7.70
2023-05-01T04:28:25.514Z,9.30
2023-05-01T04:30:56.005Z,6.80
2023-05-01T04:33:26.123Z,7.50
2023-05-01T04:35:55.810Z,5.80
2023-05-01T04:38:29.132Z,7.20
2023-05-01T04:40:59.247Z,4.70
2023-05-01T04:43:28.725Z,7.30
2023-05-01T04:45:59.780Z,6.10
2023-05-01T04:48:30.604Z,9.00
2023-05-01T04:51:05.122Z,7.70
2023-05-01T04:53:36.874Z,7.70
2023-05-01T04:56:07.460Z,7.70
2023-05-01T04:58:49.122Z,10.10
2023-05-01T05:01:22.899Z,9.90
2023-05-01T05:03:55.240Z,7.10
2023-05-01T05:06:27.180Z,9.10
2023-05-01T05:08:58.134Z,9.40
2023-05-01T05:11:30.614Z,8.20
2023-05-01T05:14:04.281Z,9.20
2023-05-01T05:16:35.220Z,10.20
2023-05-01T05:19:05.010Z,9.00
2023-05-01T05:21:38.046Z,13.70
2023-05-01T05:24:08.662Z,10.80
2023-05-01T05:26:38.352Z,8.40
2023-05-01T05:29:08.879Z,9.90
2023-05-01T05:31:39.121Z,9.50
2023-05-01T05:34:09.523Z,9.60
2023-05-01T05:36:39.341Z,9.30
2023-05-01T05:39:08.939Z,12.60
2023-05-01T05:41:39.805Z,12.10
2023-05-01T05:44:09.321Z,11.00
2023-05-01T05:46:39.306Z,10.00
2023-05-01T05:49:09.537Z,10.50
2023-05-01T05:51:39.167Z,12.60
2023-05-01T05:54:12.790Z,13.30
2023-05-01T05:56:43.585Z,9.60
2023-05-01T05:59:16.613Z,10.10
2023-05-01T06:01:47.513Z,12.00
2023-05-01T06:04:17.132Z,11.70
2023-05-01T06:06:47.686Z,13.50
2023-05-01T06:09:19.216Z,16.90
2023-05-01T06:11:52.614Z,11.80
2023-05-01T06:14:22.564Z,13.90
2023-05-01T06:16:52.181Z,11.40
2023-05-01T06:19:21.841Z,12.50
2023-05-01T06:21:54.358Z,10.30
2023-05-01T06:24:23.937Z,11.00
2023-05-01T06:26:56.100Z,11.00
2023-05-01T06:29:25.798Z,12.50
2023-05-01T06:32:05.765Z,8.90
2023-05-01T06:34:35.793Z,8.80
2023-05-01T06:37:08.191Z,10.40
2023-05-01T06:39:37.856Z,13.70
2023-05-01T06:42:21.807Z,8.80
2023-05-01T06:44:57.554Z,10.50
2023-05-01T06:47:28.623Z,16.30
2023-05-01T06:50:00.290Z,14.70
2023-05-01T06:52:33.049Z,7.20
2023-05-01T06:55:02.549Z,9.40
2023-05-01T06:57:32.495Z,9.10
2023-05-01T07:00:05.744Z,8.60
2023-05-01T07:02:38.366Z,10.40
2023-05-01T07:05:08.661Z,9.60
2023-05-01T07:07:42.228Z,8.20
2023-05-01T07:10:19.844Z,10.30
2023-05-01T07:12:51.717Z,7.40
2023-05-01T07:15:21.539Z,8.70
2023-05-01T07:18:14.290Z,10.40
2023-05-01T07:20:43.795Z,9.40
2023-05-01T07:23:24.575Z,12.90
2023-05-01T07:25:56.184Z,8.30
2023-05-01T07:28:28.431Z,7.40
2023-05-01T07:31:01.877Z,8.30
2023-05-01T07:33:36.930Z,6.40
2023-05-01T07:36:06.575Z,8.00
2023-05-01T07:38:45.563Z,10.90
2023-05-01T07:41:16.521Z,11.40
